Time;durP1;ratioP1;P1;durP2;ratioP2;P2;SDS_P1;SDS_P2;PMS_P1;PMS_P2;Temp;Humidity;BMP_temperature;BMP_pressure;BME280_temperature;BME280_humidity;BME280_pressure;Samples;Min_cycle;Max_cycle;Signal;HPM_P1;HPM_P2
2022/06/03 00:00:08;;;;;;;5.87;5.10;;;;;;;24.99;44.96;95376.72;6193923;28;103235;-63
2022/06/03 00:03:34;;;;;;;5.27;4.77;;;;;;;24.92;45.38;95381.00;6209736;28;103199;-63
2022/06/03 00:06:57;;;;;;;5.33;4.83;;;;;;;24.88;45.16;95380.06;6207375;28;103971;-63
2022/06/03 00:10:36;;;;;;;5.70;5.20;;;;;;;24.87;45.44;95383.84;6206426;28;103374;-63
2022/06/03 00:14:00;;;;;;;5.30;4.80;;;;;;;24.91;45.36;95374.06;6196397;28;104114;-63
2022/06/03 00:17:15;;;;;;;5.57;4.60;;;;;;;24.94;45.39;95368.09;6208701;28;103560;-63
2022/06/03 00:20:31;;;;;;;5.20;4.20;;;;;;;24.93;45.31;95372.66;6208232;28;104401;-63
2022/06/03 00:24:06;;;;;;;6.60;4.70;;;;;;;24.96;45.07;95373.91;6198268;28;104840;-63
2022/06/03 00:27:35;;;;;;;4.80;4.50;;;;;;;24.93;45.06;95377.22;6201015;28;103326;-63
2022/06/03 00:30:52;;;;;;;4.70;4.20;;;;;;;24.93;45.18;95371.88;6192462;28;103125;-63
2022/06/03 00:34:21;;;;;;;8.20;4.83;;;;;;;24.91;45.30;95371.41;6200489;28;103752;-64
2022/06/03 00:37:36;;;;;;;6.07;4.73;;;;;;;24.91;45.27;95374.06;6208423;28;104460;-63
2022/06/03 00:40:55;;;;;;;5.20;4.80;;;;;;;24.88;45.18;95378.19;6205670;28;104262;-64
2022/06/03 00:44:26;;;;;;;5.43;4.93;;;;;;;24.86;45.27;95374.22;6208565;28;103828;-64
2022/06/03 00:47:51;;;;;;;5.40;4.90;;;;;;;24.86;45.27;95388.38;6196087;28;103985;-63
2022/06/03 00:51:27;;;;;;;8.23;6.07;;;;;;;24.87;45.24;95381.97;6208521;28;103288;-63
2022/06/03 00:54:42;;;;;;;5.30;4.83;;;;;;;24.87;45.40;95373.94;6206792;28;104301;-63
2022/06/03 00:58:21;;;;;;;6.37;4.50;;;;;;;24.88;45.38;95378.19;6187664;28;103240;-63
2022/06/03 01:01:31;;;;;;;5.20;4.70;;;;;;;24.90;45.03;95370.59;6205333;28;104204;-63
2022/06/03 01:04:54;;;;;;;6.47;4.83;;;;;;;24.89;45.26;95366.38;6206701;28;104184;-63
2022/06/03 01:08:06;;;;;;;4.80;4.40;;;;;;;24.89;45.49;95368.25;6203372;28;103488;-66
2022/06/03 01:11:29;;;;;;;5.30;4.40;;;;;;;24.85;45.54;95360.03;6211579;28;102969;-66
2022/06/03 01:14:47;;;;;;;5.10;4.57;;;;;;;24.86;45.20;95350.13;6211497;28;103388;-65
2022/06/03 01:18:10;;;;;;;5.30;4.90;;;;;;;24.87;45.06;95357.88;6212671;28;103986;-66
2022/06/03 01:21:32;;;;;;;5.97;4.27;;;;;;;24.87;45.11;95359.75;6201320;28;103302;-66
2022/06/03 01:25:02;;;;;;;5.13;4.63;;;;;;;24.84;45.50;95363.03;6212574;28;103160;-66
2022/06/03 01:28:43;;;;;;;5.43;4.93;;;;;;;24.85;45.22;95353.91;6212804;28;104296;-65
2022/06/03 01:32:48;;;;;;;5.27;4.80;;;;;;;24.82;45.15;95352.66;6198864;28;103372;-65
2022/06/03 01:36:16;;;;;;;5.97;5.40;;;;;;;24.76;45.37;95351.25;6087844;28;103028;-65
2022/06/03 01:39:43;;;;;;;5.40;4.93;;;;;;;24.75;45.24;95350.44;6090291;28;103927;-64
2022/06/03 01:43:24;;;;;;;5.50;5.00;;;;;;;24.77;45.52;95361.63;6194475;28;102971;-64
2022/06/03 01:46:29;;;;;;;5.40;4.97;;;;;;;24.80;45.48;95357.53;6209464;28;103400;-65
2022/06/03 01:49:57;;;;;;;5.80;5.23;;;;;;;24.81;45.46;95369.81;6210426;28;103457;-64
2022/06/03 01:53:23;;;;;;;5.90;5.30;;;;;;;24.69;45.63;95365.06;6207460;28;103152;-65
2022/06/03 01:56:45;;;;;;;4.63;4.20;;;;;;;24.80;45.20;95370.91;6173168;28;102866;-64
2022/06/03 02:00:19;;;;;;;5.63;5.13;;;;;;;24.75;45.48;95371.88;6207188;28;103411;-64
2022/06/03 02:03:57;;;;;;;4.90;4.40;;;;;;;24.77;45.47;95379.56;6210567;28;107605;-64
2022/06/03 02:07:24;;;;;;;5.30;4.60;;;;;;;24.77;45.39;95383.03;6199508;28;103916;-64
2022/06/03 02:11:09;;;;;;;5.00;4.60;;;;;;;24.75;45.58;95379.09;6207034;28;103254;-65
2022/06/03 02:14:53;;;;;;;6.57;4.87;;;;;;;24.72;45.57;95379.75;6207372;28;103129;-65
2022/06/03 02:18:29;;;;;;;5.30;4.73;;;;;;;24.72;45.50;95377.84;6193363;28;103086;-65
2022/06/03 02:22:11;;;;;;;5.17;4.67;;;;;;;24.69;45.41;95380.34;6206905;28;103677;-65
2022/06/03 02:25:31;;;;;;;5.20;4.40;;;;;;;24.69;45.58;95380.34;6208295;28;103123;-65
2022/06/03 02:32:17;;;;;;;5.57;5.00;;;;;;;24.69;45.40;95383.81;6283160;27;102813;-65
2022/06/03 02:35:31;;;;;;;5.27;4.87;;;;;;;24.67;45.59;95385.97;6281196;27;103172;-64
2022/06/03 02:38:55;;;;;;;6.30;4.97;;;;;;;24.66;45.50;95388.97;6274331;27;103209;-64
2022/06/03 02:42:24;;;;;;;5.00;4.60;;;;;;;24.64;45.94;95385.84;6280612;27;103125;-65
2022/06/03 02:45:59;;;;;;;4.70;4.10;;;;;;;24.57;45.67;95388.97;6276555;27;103821;-64
2022/06/03 02:49:37;;;;;;;4.40;4.10;;;;;;;24.64;45.61;95388.50;6270314;27;106278;-65
2022/06/03 02:53:11;;;;;;;7.40;6.30;;;;;;;24.65;45.82;95388.19;6266686;27;103167;-65
2022/06/03 02:57:05;;;;;;;8.37;7.57;;;;;;;24.69;45.37;95394.50;6257938;27;104193;-65
2022/06/03 03:00:20;;;;;;;8.23;7.53;;;;;;;24.71;45.60;95396.91;6224452;27;103523;-65
2022/06/03 03:03:56;;;;;;;5.60;5.20;;;;;;;24.69;45.04;95394.50;6266725;27;104351;-65
2022/06/03 03:07:25;;;;;;;9.27;6.20;;;;;;;24.70;45.72;95400.69;6274827;27;103920;-65
2022/06/03 03:10:58;;;;;;;5.63;5.10;;;;;;;24.60;45.80;95399.06;6271623;27;104106;-65
2022/06/03 03:14:35;;;;;;;6.67;4.77;;;;;;;24.48;46.32;95399.66;6242009;27;104188;-65
2022/06/03 03:17:57;;;;;;;5.00;4.50;;;;;;;24.59;45.86;95391.34;6242429;27;103051;-65
2022/06/03 03:21:36;;;;;;;5.73;5.00;;;;;;;24.66;45.53;95395.13;6272590;27;103815;-64
2022/06/03 03:25:04;;;;;;;5.50;5.00;;;;;;;24.71;45.43;95392.34;6243513;27;103360;-65
2022/06/03 03:28:50;;;;;;;5.90;4.80;;;;;;;24.70;45.63;95392.66;6265045;27;102892;-65
2022/06/03 03:32:14;;;;;;;6.77;5.13;;;;;;;24.71;45.38;95402.25;6271026;27;105385;-64
2022/06/03 03:35:54;;;;;;;6.57;4.97;;;;;;;24.76;46.29;95400.22;6253667;27;103029;-64
2022/06/03 03:39:25;;;;;;;6.10;5.50;;;;;;;24.72;46.45;95404.63;6269222;27;102950;-65
2022/06/03 03:42:57;;;;;;;6.30;5.67;;;;;;;24.73;46.29;95416.91;6255022;27;104107;-67
2022/06/03 03:46:29;;;;;;;6.13;5.20;;;;;;;24.72;46.07;95409.19;6254169;27;104034;-66
2022/06/03 03:50:21;;;;;;;5.20;4.70;;;;;;;24.78;45.75;95413.28;6241957;27;103141;-65
2022/06/03 03:53:57;;;;;;;13.33;5.80;;;;;;;24.91;46.67;95416.91;6174297;28;104301;-62
2022/06/03 03:57:53;;;;;;;6.43;5.00;;;;;;;24.98;45.92;95428.72;6240831;27;103213;-63
2022/06/03 04:01:33;;;;;;;7.30;5.10;;;;;;;24.98;46.90;95425.25;6170701;28;103573;-67
2022/06/03 04:05:01;;;;;;;10.47;5.60;;;;;;;25.00;46.24;95428.41;6171799;27;103222;-66
2022/06/03 04:08:55;;;;;;;7.20;6.50;;;;;;;25.02;46.63;95426.19;6237506;27;103577;-66
2022/06/03 04:12:33;;;;;;;8.77;5.97;;;;;;;25.02;46.58;95429.66;6137470;27;104378;-63
2022/06/03 04:16:01;;;;;;;10.30;5.93;;;;;;;25.00;47.75;95428.41;6237797;27;104537;-64
2022/06/03 04:19:32;;;;;;;5.80;5.20;;;;;;;24.89;46.50;95422.59;6245179;27;102975;-65
2022/06/03 04:22:53;;;;;;;6.70;6.00;;;;;;;24.73;46.75;95421.47;6228034;27;103205;-65
2022/06/03 04:26:20;;;;;;;10.37;6.23;;;;;;;24.62;47.15;95426.28;6239670;28;103147;-65
2022/06/03 04:30:11;;;;;;;7.07;5.20;;;;;;;24.56;47.11;95440.13;6238772;27;103533;-65
2022/06/03 04:33:52;;;;;;;8.93;6.23;;;;;;;24.61;46.91;95450.69;6208344;27;103205;-65
2022/06/03 04:37:33;;;;;;;6.00;5.50;;;;;;;24.64;47.42;95453.53;6236342;28;103320;-65
2022/06/03 04:41:14;;;;;;;9.67;8.87;;;;;;;24.70;47.07;95448.84;6215260;27;103111;-65
2022/06/03 04:45:06;;;;;;;15.13;13.60;;;;;;;24.72;47.35;95450.13;6208342;27;104215;-65
2022/06/03 04:48:39;;;;;;;16.67;15.20;;;;;;;24.69;47.71;95464.09;6238069;27;103111;-65
2022/06/03 04:52:21;;;;;;;8.60;7.83;;;;;;;24.61;48.28;95461.38;6237752;28;103109;-67
2022/06/03 04:56:05;;;;;;;10.30;7.50;;;;;;;24.59;48.04;95468.94;6227185;27;104454;-65
2022/06/03 05:00:11;;;;;;;9.00;8.17;;;;;;;23.99;50.29;95466.78;6236476;28;104058;-66
2022/06/03 05:03:50;;;;;;;8.57;7.77;;;;;;;23.75;51.05;95473.28;6174974;27;102821;-66
2022/06/03 05:07:31;;;;;;;8.83;7.03;;;;;;;23.89;50.89;95478.53;6228387;27;103063;-65
2022/06/03 05:11:12;;;;;;;7.77;7.00;;;;;;;24.25;49.79;95469.63;6238703;27;104243;-66
2022/06/03 05:14:46;;;;;;;7.97;7.07;;;;;;;24.33;49.67;95472.31;6238063;27;103401;-66
2022/06/03 05:18:20;;;;;;;8.40;7.37;;;;;;;24.40;49.69;95485.25;6228389;27;103159;-65
2022/06/03 05:22:01;;;;;;;14.27;7.50;;;;;;;24.51;49.17;95481.19;6237963;27;103447;-66
2022/06/03 05:25:38;;;;;;;10.90;7.60;;;;;;;24.59;48.80;95477.75;6238220;27;102987;-66
2022/06/03 05:29:00;;;;;;;10.07;7.10;;;;;;;24.64;48.85;95490.97;6232214;28;103137;-66
2022/06/03 05:32:44;;;;;;;10.63;7.97;;;;;;;24.68;48.75;95483.16;6237141;28;102935;-66
2022/06/03 05:36:16;;;;;;;7.67;6.97;;;;;;;24.72;48.74;95478.78;6245388;27;103156;-67
2022/06/03 05:40:06;;;;;;;15.70;9.27;;;;;;;24.85;48.95;95480.50;6263397;27;102878;-64
2022/06/03 05:43:45;;;;;;;10.77;7.83;;;;;;;25.04;49.29;95481.03;6229450;27;103951;-64
2022/06/03 05:47:00;;;;;;;9.07;7.87;;;;;;;25.03;48.47;95486.66;6263001;27;102888;-66
2022/06/03 05:50:09;;;;;;;7.40;6.80;;;;;;;25.05;48.62;95489.84;6262716;27;103196;-65
2022/06/03 05:53:34;;;;;;;8.87;6.20;;;;;;;25.08;48.47;95479.28;6252848;27;103075;-65
2022/06/03 05:56:47;;;;;;;7.80;7.00;;;;;;;25.19;48.02;95476.28;6262943;27;102934;-66
2022/06/03 06:00:18;;;;;;;8.47;6.13;;;;;;;25.22;47.99;95481.03;6262479;27;103045;-66
2022/06/03 06:03:32;;;;;;;7.60;6.87;;;;;;;25.26;47.93;95479.31;6218374;27;104094;-65
2022/06/03 06:06:41;;;;;;;9.17;8.30;;;;;;;25.19;48.63;95468.25;6261887;27;102975;-66
2022/06/03 06:09:52;;;;;;;10.20;7.43;;;;;;;25.13;49.10;95462.28;6263004;27;103634;-65
2022/06/03 06:13:13;;;;;;;11.63;7.47;;;;;;;25.23;49.05;95448.59;6262610;27;103961;-66
2022/06/03 06:16:20;;;;;;;8.07;7.03;;;;;;;25.35;48.47;95439.91;6252185;27;102840;-66
2022/06/03 06:19:41;;;;;;;9.20;7.37;;;;;;;25.49;48.33;95443.22;6262501;27;103133;-63
2022/06/03 06:22:48;;;;;;;8.07;7.17;;;;;;;25.53;48.13;95448.72;6262698;27;103029;-66
2022/06/03 06:26:10;;;;;;;7.90;7.10;;;;;;;25.50;48.18;95439.44;6252008;27;103377;-66
2022/06/03 06:29:46;;;;;;;9.10;7.30;;;;;;;25.56;47.77;95445.44;6262616;27;104367;-66
2022/06/03 06:33:26;;;;;;;9.27;6.87;;;;;;;25.63;47.79;95446.50;6262096;27;104238;-66
2022/06/03 06:37:31;;;;;;;8.33;6.60;;;;;;;25.74;47.57;95438.94;6257032;27;103928;-65
2022/06/03 06:40:46;;;;;;;8.57;7.70;;;;;;;25.77;47.65;95438.28;6262183;27;104085;-65
2022/06/03 06:43:52;;;;;;;8.13;7.40;;;;;;;25.82;47.90;95434.63;6261891;27;103174;-65
2022/06/03 06:47:00;;;;;;;10.00;7.60;;;;;;;25.86;47.49;95427.50;6262106;27;103092;-66
2022/06/03 06:50:17;;;;;;;9.70;6.93;;;;;;;25.83;47.98;95430.84;6252257;27;103844;-65
2022/06/03 06:53:32;;;;;;;8.37;7.00;;;;;;;25.80;47.75;95432.28;6262207;27;103308;-65
2022/06/03 06:56:42;;;;;;;8.30;7.50;;;;;;;25.83;47.72;95430.84;6262438;27;103152;-66
2022/06/03 06:59:49;;;;;;;10.40;7.33;;;;;;;25.77;48.00;95426.78;6252562;27;104205;-66
2022/06/03 07:02:57;;;;;;;9.93;7.10;;;;;;;25.85;47.84;95428.63;6261102;27;102695;-65
2022/06/03 07:06:12;;;;;;;7.80;6.97;;;;;;;25.91;47.42;95432.72;6262003;27;104115;-66
2022/06/03 07:09:35;;;;;;;7.77;7.03;;;;;;;25.97;47.99;95428.75;6262085;27;102978;-66
2022/06/03 07:12:48;;;;;;;9.00;7.40;;;;;;;26.04;48.53;95430.94;6250949;27;103932;-66
2022/06/03 07:16:10;;;;;;;7.73;6.80;;;;;;;26.00;47.43;95430.81;6261920;27;103585;-66
2022/06/03 07:22:46;;;;;;;12.10;7.00;;;;;;;25.71;48.42;95423.47;6255622;27;102902;-65
2022/06/03 07:25:56;;;;;;;7.73;6.63;;;;;;;25.64;48.66;95423.16;6265809;27;103117;-66
2022/06/03 07:29:11;;;;;;;8.43;6.20;;;;;;;25.49;48.63;95427.13;6265648;27;103070;-65
2022/06/03 07:32:19;;;;;;;7.33;6.57;;;;;;;25.41;48.21;95419.13;6265680;27;104321;-65
2022/06/03 07:35:29;;;;;;;8.90;6.70;;;;;;;25.26;48.56;95428.41;6254312;27;103252;-66
2022/06/03 07:38:39;;;;;;;7.60;6.83;;;;;;;25.29;48.18;95428.56;6265801;27;103511;-66
2022/06/03 07:41:51;;;;;;;8.13;6.30;;;;;;;25.72;48.06;95421.59;6265409;27;103996;-65
2022/06/03 07:45:29;;;;;;;7.77;6.17;;;;;;;26.13;48.57;95431.72;6259863;27;103149;-65
2022/06/03 07:48:37;;;;;;;7.90;6.20;;;;;;;26.12;47.77;95436.31;6264889;27;103057;-66
2022/06/03 07:51:47;;;;;;;7.77;6.33;;;;;;;25.77;47.65;95442.84;6265152;27;102923;-65
2022/06/03 07:54:56;;;;;;;7.13;6.13;;;;;;;25.49;48.15;95437.84;6265573;27;103705;-65
2022/06/03 07:58:05;;;;;;;7.33;6.40;;;;;;;25.52;48.24;95436.44;6254183;27;103444;-65
2022/06/03 08:01:22;;;;;;;7.40;5.83;;;;;;;25.67;47.89;95444.75;6265387;27;103329;-66
2022/06/03 08:04:29;;;;;;;9.37;8.47;;;;;;;25.99;48.04;95439.94;6265104;27;104059;-66
2022/06/03 08:11:00;;;;;;;8.73;7.33;;;;;;;26.11;47.45;95444.66;6264411;27;104082;-65
2022/06/03 08:14:04;;;;;;;6.90;6.30;;;;;;;26.34;47.93;95440.63;6264814;27;102991;-66
2022/06/03 08:17:09;;;;;;;6.97;6.23;;;;;;;26.31;47.67;95443.94;6264240;27;103124;-65
2022/06/03 08:20:16;;;;;;;9.60;6.97;;;;;;;26.33;47.11;95444.41;6253340;27;103922;-66
2022/06/03 08:23:21;;;;;;;8.67;6.57;;;;;;;26.30;47.05;95453.09;6264329;27;103300;-65
2022/06/03 08:26:28;;;;;;;6.97;6.37;;;;;;;26.22;47.34;95454.72;6264151;27;104009;-65
2022/06/03 08:29:37;;;;;;;9.60;6.73;;;;;;;26.12;47.34;95451.59;6263536;27;103159;-65
2022/06/03 08:32:45;;;;;;;7.43;6.83;;;;;;;25.92;48.14;95461.13;6253493;27;103020;-64
2022/06/03 08:35:50;;;;;;;7.43;6.63;;;;;;;25.95;47.96;95450.53;6263759;27;103031;-65
2022/06/03 08:38:57;;;;;;;8.60;6.77;;;;;;;25.80;47.69;95458.28;6263979;27;104144;-66
2022/06/03 08:42:10;;;;;;;6.60;6.10;;;;;;;26.20;48.26;95454.25;6252883;27;103108;-65
2022/06/03 08:45:25;;;;;;;7.50;6.70;;;;;;;26.08;48.10;95448.00;6263782;27;102968;-65
2022/06/03 08:48:34;;;;;;;9.30;6.87;;;;;;;26.43;48.16;95452.09;6263097;27;103002;-65
2022/06/03 08:51:42;;;;;;;6.10;5.60;;;;;;;26.49;47.31;95458.06;6263680;27;103160;-66
2022/06/03 08:54:51;;;;;;;7.30;6.03;;;;;;;26.56;47.04;95459.16;6252848;27;104070;-64
2022/06/03 08:58:00;;;;;;;6.83;6.07;;;;;;;26.60;46.83;95461.97;6263552;27;103085;-65
2022/06/03 09:01:12;;;;;;;7.87;6.03;;;;;;;26.63;46.68;95457.84;6262805;27;103022;-65
2022/06/03 09:04:24;;;;;;;6.73;6.03;;;;;;;26.63;47.47;95460.53;6257931;27;103981;-65
2022/06/03 09:07:35;;;;;;;6.57;5.70;;;;;;;26.67;46.83;95456.09;6260040;27;103378;-65
2022/06/03 09:10:42;;;;;;;6.70;5.80;;;;;;;26.60;46.32;95466.56;6263648;27;103792;-65
2022/06/03 09:13:52;;;;;;;8.10;6.40;;;;;;;26.60;46.57;95469.22;6263236;27;102885;-65
2022/06/03 09:16:59;;;;;;;6.83;6.20;;;;;;;26.60;47.13;95474.59;6253965;27;105561;-65
2022/06/03 09:20:08;;;;;;;6.80;6.20;;;;;;;26.52;46.72;95473.53;6263167;27;103003;-65
2022/06/03 09:23:14;;;;;;;7.30;6.60;;;;;;;26.42;46.76;95468.53;6263835;27;104156;-64
2022/06/03 09:26:24;;;;;;;8.60;6.10;;;;;;;26.41;47.02;95466.97;6263298;27;105773;-65
2022/06/03 09:29:30;;;;;;;7.13;6.43;;;;;;;26.53;47.49;95465.13;6253929;27;103990;-65
2022/06/03 09:32:38;;;;;;;8.93;7.50;;;;;;;26.59;47.55;95457.72;6262350;27;103239;-63
2022/06/03 09:35:45;;;;;;;10.07;7.00;;;;;;;26.29;47.74;95459.59;6262980;27;104203;-65
2022/06/03 09:38:52;;;;;;;7.07;6.27;;;;;;;26.12;46.95;95460.44;6253095;27;103127;-64
2022/06/03 09:41:57;;;;;;;7.07;6.43;;;;;;;26.09;47.44;95454.94;6262723;27;103107;-65
2022/06/03 09:45:05;;;;;;;6.47;5.83;;;;;;;25.96;47.81;95454.00;6262731;27;103168;-65
2022/06/03 09:48:09;;;;;;;7.13;6.43;;;;;;;25.80;48.87;95463.66;6261846;27;103175;-65
2022/06/03 09:51:20;;;;;;;7.20;6.50;;;;;;;25.80;48.55;95455.63;6251476;27;103050;-64
2022/06/03 09:54:26;;;;;;;9.17;6.30;;;;;;;25.88;48.34;95457.50;6262567;27;104089;-65
2022/06/03 09:57:33;;;;;;;6.80;6.20;;;;;;;25.99;48.11;95458.72;6263077;27;103886;-65
2022/06/03 10:00:44;;;;;;;7.90;6.77;;;;;;;26.03;48.13;95458.88;6259783;27;103685;-62
2022/06/03 10:03:56;;;;;;;7.50;6.80;;;;;;;26.14;47.86;95458.22;6256277;27;103692;-62
2022/06/03 10:07:02;;;;;;;7.30;6.57;;;;;;;26.23;47.77;95450.94;6262832;27;103185;-62
2022/06/03 10:13:39;;;;;;;7.57;6.93;;;;;;;26.30;47.46;95457.69;6252143;27;103925;-62
2022/06/03 10:16:45;;;;;;;7.50;6.90;;;;;;;26.27;47.39;95454.53;6261977;27;104479;-63
2022/06/03 10:19:48;;;;;;;6.83;6.27;;;;;;;26.29;47.21;95459.59;6262166;27;102932;-63
2022/06/03 10:22:51;;;;;;;8.53;6.60;;;;;;;26.31;47.68;95454.69;6262099;27;102991;-63
2022/06/03 10:25:59;;;;;;;7.57;6.97;;;;;;;26.33;47.35;95459.72;6252129;27;103085;-64
2022/06/03 10:29:07;;;;;;;7.73;6.90;;;;;;;26.34;47.68;95456.72;6261698;27;102994;-63
2022/06/03 10:32:14;;;;;;;7.37;6.80;;;;;;;26.31;47.29;95454.69;6261516;27;102822;-63
2022/06/03 10:35:18;;;;;;;6.87;6.27;;;;;;;26.28;46.98;95460.69;6254896;27;103020;-65
2022/06/03 10:38:23;;;;;;;8.97;6.73;;;;;;;26.22;47.66;95449.38;6260580;27;103046;-62
2022/06/03 10:41:32;;;;;;;8.00;6.77;;;;;;;26.26;47.86;95452.19;6262366;27;104169;-63
2022/06/03 10:44:37;;;;;;;8.10;7.13;;;;;;;26.28;47.24;95442.69;6261700;27;103095;-62
2022/06/03 10:47:45;;;;;;;7.37;6.77;;;;;;;26.31;47.39;95443.16;6251544;27;105135;-63
2022/06/03 10:50:48;;;;;;;8.27;6.63;;;;;;;26.31;47.15;95440.47;6261347;27;102990;-64
2022/06/03 11:04:07;;;;;;;9.00;6.80;;;;;;;26.12;46.61;95425.56;6265684;27;103030;-62
2022/06/03 11:07:23;;;;;;;6.53;5.80;;;;;;;26.15;47.14;95426.81;6265657;27;103147;-62
2022/06/03 11:10:32;;;;;;;9.00;6.57;;;;;;;26.22;46.92;95425.22;6254691;27;103697;-63
2022/06/03 11:13:48;;;;;;;7.80;7.20;;;;;;;26.23;47.01;95426.78;6265905;27;102796;-63
2022/06/03 11:16:57;;;;;;;9.67;6.63;;;;;;;26.25;47.13;95423.78;6265353;27;103604;-63
2022/06/03 11:20:03;;;;;;;7.83;7.13;;;;;;;26.25;46.94;95421.88;6264911;27;103652;-61
2022/06/03 11:23:07;;;;;;;7.10;6.60;;;;;;;26.26;46.65;95412.72;6258084;27;104030;-62
2022/06/03 11:26:11;;;;;;;7.40;6.70;;;;;;;26.25;47.07;95411.16;6265409;27;103167;-63
2022/06/03 11:29:19;;;;;;;7.50;6.83;;;;;;;26.26;46.83;95402.00;6265254;27;103672;-67
2022/06/03 11:32:22;;;;;;;7.10;6.50;;;;;;;26.26;47.22;95406.56;6254649;27;102965;-62
2022/06/03 11:35:32;;;;;;;7.03;6.43;;;;;;;26.24;46.77;95398.84;6264451;27;103375;-63
2022/06/03 11:38:40;;;;;;;7.30;6.70;;;;;;;26.24;46.81;95390.00;6264086;27;102905;-63
2022/06/03 11:41:48;;;;;;;7.43;6.83;;;;;;;26.23;46.70;95386.53;6265165;27;103120;-63
2022/06/03 11:44:55;;;;;;;8.50;7.60;;;;;;;26.22;47.01;95382.28;6254024;27;105338;-63
2022/06/03 11:48:04;;;;;;;7.03;6.53;;;;;;;26.24;46.56;95382.75;6265116;27;102880;-63
2022/06/03 11:51:10;;;;;;;7.57;6.97;;;;;;;26.23;46.31;95375.81;6265092;27;103221;-63
2022/06/03 11:54:21;;;;;;;7.90;7.10;;;;;;;26.22;46.56;95368.88;6260537;27;103827;-62
2022/06/03 11:57:24;;;;;;;8.33;7.57;;;;;;;26.23;46.58;95359.72;6259008;27;103056;-63
2022/06/03 12:00:34;;;;;;;7.47;6.87;;;;;;;26.24;46.17;95358.59;6264441;27;103955;-62
2022/06/03 12:03:43;;;;;;;7.80;7.10;;;;;;;26.22;46.70;95365.41;6263933;27;102960;-63
2022/06/03 12:06:56;;;;;;;7.43;6.57;;;;;;;26.22;46.45;95373.47;6254699;27;103466;-64
2022/06/03 12:10:06;;;;;;;6.63;6.03;;;;;;;26.21;46.51;95367.31;6263853;27;103062;-62
2022/06/03 12:13:17;;;;;;;7.53;7.00;;;;;;;26.20;46.10;95370.28;6264203;27;103208;-63
2022/06/03 12:16:21;;;;;;;7.03;6.53;;;;;;;26.20;46.75;95365.72;6263814;27;103032;-63
2022/06/03 12:19:43;;;;;;;7.70;7.00;;;;;;;26.21;46.08;95377.22;6253142;27;102849;-63
2022/06/03 12:22:48;;;;;;;7.93;7.33;;;;;;;26.20;46.33;95376.44;6263870;27;103094;-63
2022/06/03 12:26:12;;;;;;;7.20;6.60;;;;;;;26.20;46.34;95373.75;6264523;27;103955;-62
2022/06/03 12:29:25;;;;;;;7.13;6.63;;;;;;;26.20;46.33;95376.44;6253621;27;103959;-63
2022/06/03 12:32:30;;;;;;;7.27;6.57;;;;;;;26.20;45.86;95376.44;6264235;27;102937;-63
2022/06/03 12:35:56;;;;;;;7.13;6.53;;;;;;;26.19;45.46;95366.81;6263615;27;103121;-63
2022/06/03 12:39:24;;;;;;;7.20;6.57;;;;;;;26.20;45.71;95379.13;6263885;27;104007;-63
2022/06/03 12:42:39;;;;;;;6.93;6.40;;;;;;;26.18;45.59;95381.34;6252987;27;103144;-64
2022/06/03 12:45:43;;;;;;;7.00;6.50;;;;;;;26.20;45.37;95372.97;6263838;27;103209;-62
2022/06/03 12:48:51;;;;;;;7.20;6.70;;;;;;;26.17;45.75;95373.63;6263684;27;102949;-62
2022/06/03 12:52:03;;;;;;;6.60;6.10;;;;;;;26.18;45.39;95364.47;6253994;27;104141;-63
2022/06/03 12:55:16;;;;;;;6.97;6.47;;;;;;;26.17;45.39;95366.38;6263545;27;103004;-62
2022/06/03 12:58:33;;;;;;;7.50;6.70;;;;;;;26.17;45.47;95358.31;6263700;27;104024;-62
2022/06/03 13:01:47;;;;;;;7.30;6.60;;;;;;;26.17;45.60;95350.25;6263299;27;104115;-63
2022/06/03 13:05:25;;;;;;;7.67;7.07;;;;;;;26.15;45.28;95357.06;6253874;27;103988;-63
2022/06/03 13:11:59;;;;;;;8.57;7.87;;;;;;;26.16;45.86;95369.38;6262833;27;104571;-63
2022/06/03 13:15:36;;;;;;;8.70;8.10;;;;;;;26.15;45.55;95368.59;6251002;27;103165;-63
2022/06/03 13:18:42;;;;;;;8.37;7.67;;;;;;;26.16;45.23;95375.53;6263109;27;103128;-63
2022/06/03 13:22:03;;;;;;;7.40;6.70;;;;;;;26.15;45.37;95371.28;6263012;27;103054;-63
2022/06/03 13:25:31;;;;;;;8.10;7.40;;;;;;;26.14;45.21;95375.06;6257934;27;102975;-63
2022/06/03 13:28:38;;;;;;;7.60;6.90;;;;;;;26.14;45.65;95375.06;6259236;27;104287;-63
2022/06/03 13:32:01;;;;;;;8.20;7.50;;;;;;;26.15;45.55;95376.63;6263200;27;104159;-63
2022/06/03 13:35:09;;;;;;;7.77;7.17;;;;;;;26.14;45.51;95372.38;6262675;27;102974;-63
2022/06/03 13:38:27;;;;;;;7.80;7.20;;;;;;;26.16;45.69;95374.72;6251568;27;103635;-63
2022/06/03 13:45:21;;;;;;;7.90;7.23;;;;;;;26.15;45.48;95368.59;6262132;27;103992;-64
2022/06/03 13:48:33;;;;;;;7.60;7.00;;;;;;;26.16;45.27;95369.38;6252726;27;102965;-62
2022/06/03 13:51:52;;;;;;;7.60;7.00;;;;;;;26.17;44.99;95363.69;6261995;27;102934;-63
2022/06/03 13:55:02;;;;;;;8.10;7.50;;;;;;;26.18;45.12;95359.09;6262392;27;103222;-63
2022/06/03 13:58:11;;;;;;;7.23;6.60;;;;;;;26.18;45.31;95351.06;6261588;27;102954;-63
2022/06/03 14:01:25;;;;;;;7.73;7.10;;;;;;;26.17;45.64;95350.25;6251638;27;103214;-64
2022/06/03 14:04:31;;;;;;;7.50;7.00;;;;;;;26.17;45.23;95357.53;6261942;27;103125;-63
2022/06/03 14:07:38;;;;;;;8.43;7.57;;;;;;;26.18;45.34;95362.56;6262006;27;103565;-63
2022/06/03 14:10:46;;;;;;;7.70;7.10;;;;;;;26.17;45.58;95370.94;6257592;27;103125;-63
2022/06/03 14:13:56;;;;;;;8.17;7.47;;;;;;;26.18;45.73;95370.63;6256612;27;103014;-64
2022/06/03 14:17:05;;;;;;;8.30;7.43;;;;;;;26.19;45.87;95379.44;6262076;27;103124;-62
2022/06/03 14:20:13;;;;;;;8.30;7.60;;;;;;;26.18;46.02;95383.25;6261375;27;103306;-63
2022/06/03 14:23:31;;;;;;;7.97;7.13;;;;;;;26.19;45.92;95385.59;6251489;27;102782;-63
2022/06/03 14:26:38;;;;;;;7.40;6.70;;;;;;;26.20;45.58;95397.91;6261876;27;104188;-62
2022/06/03 14:29:48;;;;;;;7.37;6.87;;;;;;;26.19;45.46;95390.19;6261131;27;106797;-63
2022/06/03 14:32:57;;;;;;;7.83;7.23;;;;;;;26.19;45.93;95390.19;6261327;27;103309;-64
2022/06/03 14:36:02;;;;;;;8.60;7.70;;;;;;;26.19;45.94;95393.66;6252647;27;104021;-63
2022/06/03 14:39:10;;;;;;;7.97;7.23;;;;;;;26.16;45.88;95388.16;6261274;27;103016;-63
2022/06/03 14:42:23;;;;;;;7.70;7.00;;;;;;;26.18;45.85;95386.72;6261658;27;102917;-62
2022/06/03 14:45:32;;;;;;;8.37;7.63;;;;;;;26.17;45.99;95379.78;6251687;27;104287;-64
2022/06/03 14:48:44;;;;;;;9.03;7.37;;;;;;;26.18;45.89;95383.25;6261571;27;103956;-63
2022/06/03 14:51:50;;;;;;;8.33;7.63;;;;;;;26.16;45.72;95377.41;6260500;27;102919;-63
2022/06/03 14:54:58;;;;;;;8.53;7.73;;;;;;;26.16;46.13;95382.78;6261541;27;102865;-63
2022/06/03 14:58:10;;;;;;;7.80;7.20;;;;;;;26.16;46.11;95380.09;6250199;27;104321;-63
2022/06/03 15:01:29;;;;;;;8.30;7.50;;;;;;;26.17;45.72;95376.31;6261806;27;103105;-63
2022/06/03 15:04:42;;;;;;;9.03;8.20;;;;;;;26.17;46.20;95387.03;6261143;27;103741;-62
2022/06/03 15:07:52;;;;;;;9.87;7.80;;;;;;;26.18;46.29;95391.28;6248416;27;104278;-67
2022/06/03 15:11:14;;;;;;;8.77;8.07;;;;;;;26.18;45.60;95394.75;6235672;27;103468;-67
2022/06/03 15:14:22;;;;;;;9.03;8.23;;;;;;;26.16;45.99;95401.56;6235507;27;103174;-66
2022/06/03 15:17:27;;;;;;;10.00;9.00;;;;;;;26.16;45.67;95406.94;6236097;28;102761;-66
2022/06/03 15:20:31;;;;;;;8.80;8.00;;;;;;;26.17;46.72;95398.56;6225085;27;103683;-66
2022/06/03 15:23:43;;;;;;;8.87;8.17;;;;;;;26.16;46.37;95396.19;6233951;27;103213;-66
2022/06/03 15:26:46;;;;;;;12.27;8.50;;;;;;;26.20;47.10;95397.91;6245153;27;102728;-66
2022/06/03 15:29:52;;;;;;;12.10;9.37;;;;;;;26.20;47.25;95391.75;6230977;27;102798;-68
2022/06/03 15:32:57;;;;;;;10.30;9.17;;;;;;;26.19;46.96;95399.00;6229817;27;103938;-66
2022/06/03 15:36:06;;;;;;;15.13;8.53;;;;;;;26.22;48.37;95390.34;6254945;27;104245;-67
2022/06/03 15:39:17;;;;;;;11.90;8.37;;;;;;;26.20;47.83;95395.22;6244899;27;103172;-69
2022/06/03 15:42:23;;;;;;;9.20;8.30;;;;;;;26.22;47.77;95401.06;6236992;27;103599;-67
2022/06/03 15:45:44;;;;;;;12.27;8.40;;;;;;;26.25;47.90;95405.00;6261315;27;103497;-65
2022/06/03 15:48:54;;;;;;;12.27;9.10;;;;;;;26.31;47.53;95409.06;6251719;27;103112;-64
2022/06/03 15:51:59;;;;;;;12.20;8.23;;;;;;;26.37;48.20;95405.06;6260316;27;103291;-64